Time;durP1;ratioP1;P1;durP2;ratioP2;P2;SDS_P1;SDS_P2;PMS_P1;PMS_P2;Temp;Humidity;BMP_temperature;BMP_pressure;BME280_temperature;BME280_humidity;BME280_pressure;Samples;Min_cycle;Max_cycle;Signal;HPM_P1;HPM_P2
2022/03/02 00:00:27;;;;;;;4.27;3.30;;;-0.30;95.90;;;;;;5056528;28;20651;-68
2022/03/02 00:02:53;;;;;;;5.37;4.80;;;-0.30;96.00;;;;;;5039146;28;20265;-70
2022/03/02 00:05:19;;;;;;;3.60;3.40;;;-0.30;96.10;;;;;;5056288;28;20205;-67
2022/03/02 00:07:51;;;;;;;3.67;3.33;;;-0.30;96.10;;;;;;5056752;28;20193;-70
2022/03/02 00:10:19;;;;;;;6.03;5.00;;;-0.30;96.10;;;;;;5057243;28;20705;-69
2022/03/02 00:12:45;;;;;;;4.15;3.85;;;-0.30;96.40;;;;;;5038496;28;20657;-69
2022/03/02 00:15:10;;;;;;;4.63;4.43;;;-0.30;96.50;;;;;;5038320;28;20197;-69
2022/03/02 00:17:36;;;;;;;3.57;3.27;;;-0.40;96.50;;;;;;5056513;28;20174;-68
2022/03/02 00:20:04;;;;;;;5.30;4.30;;;-0.40;96.70;;;;;;5056528;28;20800;-67
2022/03/02 00:22:30;;;;;;;3.00;2.70;;;-0.40;96.90;;;;;;5056514;28;20195;-69
2022/03/02 00:24:55;;;;;;;6.57;3.87;;;-0.40;96.90;;;;;;5056064;28;20224;-68
2022/03/02 00:27:24;;;;;;;5.23;3.50;;;-0.40;96.90;;;;;;5056527;28;20360;-69
2022/03/02 00:29:50;;;;;;;3.90;3.13;;;-0.40;97.00;;;;;;5056494;28;20170;-68
2022/03/02 00:32:16;;;;;;;5.10;4.22;;;-0.40;97.20;;;;;;5056274;28;20197;-69
2022/03/02 00:34:42;;;;;;;4.03;3.57;;;-0.40;97.30;;;;;;5056253;28;20338;-69
2022/03/02 00:37:08;;;;;;;5.25;4.55;;;-0.40;97.40;;;;;;5038519;28;20773;-69
2022/03/02 00:39:34;;;;;;;6.80;2.63;;;-0.40;97.60;;;;;;5056442;28;20201;-70
2022/03/02 00:42:00;;;;;;;5.90;3.63;;;-0.40;97.60;;;;;;5056063;28;20205;-69
2022/03/02 00:44:26;;;;;;;5.27;3.63;;;-0.50;97.70;;;;;;5037798;28;20397;-70
2022/03/02 00:46:52;;;;;;;5.50;3.70;;;;;;;;;;5056015;28;20403;-69
2022/03/02 00:49:18;;;;;;;7.25;3.95;;;-0.40;97.80;;;;;;5037951;28;20200;-69
2022/03/02 00:51:44;;;;;;;3.90;3.60;;;-0.40;98.20;;;;;;5056108;28;20193;-69
2022/03/02 00:54:10;;;;;;;5.17;4.70;;;-0.40;98.40;;;;;;5055452;28;21005;-69
2022/03/02 00:56:36;;;;;;;6.38;3.05;;;-0.40;98.40;;;;;;5056260;28;20408;-70
2022/03/02 00:59:02;;;;;;;3.60;3.40;;;-0.30;98.30;;;;;;5037812;28;20183;-68
2022/03/02 01:01:28;;;;;;;5.87;2.50;;;-0.30;98.20;;;;;;5055920;28;20174;-68
2022/03/02 01:03:53;;;;;;;3.33;3.13;;;-0.20;97.90;;;;;;5054362;28;20428;-68
2022/03/02 01:06:19;;;;;;;4.10;3.77;;;-0.20;98.20;;;;;;5037753;28;20662;-69
2022/03/02 01:08:46;;;;;;;2.43;2.23;;;-0.20;98.00;;;;;;5055307;28;20202;-70
2022/03/02 01:11:12;;;;;;;3.67;3.42;;;-0.20;98.30;;;;;;5055338;28;20405;-69
2022/03/02 01:13:38;;;;;;;2.93;2.73;;;-0.10;98.40;;;;;;5055330;28;20528;-69
2022/03/02 01:16:04;;;;;;;4.30;4.00;;;-0.10;98.30;;;;;;5037339;28;20420;-69
2022/03/02 01:18:30;;;;;;;3.08;2.83;;;-0.10;98.30;;;;;;5055262;28;20692;-69
2022/03/02 01:20:56;;;;;;;3.90;3.67;;;0.00;98.20;;;;;;5055496;28;20289;-68
2022/03/02 01:23:22;;;;;;;3.95;3.55;;;0.00;98.30;;;;;;5055309;28;20754;-68
2022/03/02 01:25:47;;;;;;;3.03;2.83;;;0.00;98.30;;;;;;5055041;28;20192;-70
2022/03/02 01:28:13;;;;;;;4.93;4.50;;;0.00;98.40;;;;;;5037123;28;20451;-70
2022/03/02 01:30:39;;;;;;;4.27;3.93;;;0.00;98.40;;;;;;5055302;28;20196;-71
2022/03/02 01:33:04;;;;;;;6.03;4.23;;;0.00;98.30;;;;;;5054796;28;20505;-70
2022/03/02 01:35:30;;;;;;;3.73;3.50;;;0.00;98.30;;;;;;5054928;28;20559;-70
2022/03/02 01:37:55;;;;;;;4.93;4.53;;;0.00;98.30;;;;;;5055261;28;20643;-70
2022/03/02 01:40:21;;;;;;;3.70;3.40;;;-0.10;98.40;;;;;;5055088;28;20233;-69
2022/03/02 01:42:47;;;;;;;4.07;3.83;;;-0.20;98.80;;;;;;5036989;28;20170;-69
2022/03/02 01:45:14;;;;;;;5.90;4.00;;;-0.20;99.00;;;;;;5054767;28;20200;-69
2022/03/02 01:47:41;;;;;;;6.28;4.20;;;-0.20;99.10;;;;;;5054993;28;20176;-70
2022/03/02 01:50:11;;;;;;;4.47;3.58;;;-0.10;99.00;;;;;;5036988;28;20181;-68
2022/03/02 01:52:37;;;;;;;5.03;4.40;;;-0.10;98.80;;;;;;5054799;28;20524;-70
2022/03/02 01:55:04;;;;;;;2.77;2.57;;;-0.10;98.60;;;;;;5054351;28;20243;-69
2022/03/02 01:57:30;;;;;;;7.13;5.20;;;-0.20;98.40;;;;;;5054625;28;20408;-70
2022/03/02 01:59:56;;;;;;;6.03;4.80;;;-0.20;98.30;;;;;;5054623;28;20240;-68
2022/03/02 02:02:21;;;;;;;14.73;3.73;;;-0.20;98.30;;;;;;5054447;28;20662;-69
2022/03/02 02:04:47;;;;;;;3.60;3.33;;;-0.20;98.40;;;;;;5054036;28;20201;-70
2022/03/02 02:07:13;;;;;;;4.07;3.77;;;-0.20;98.10;;;;;;5054397;28;20650;-69
2022/03/02 02:09:38;;;;;;;6.40;3.90;;;-0.30;98.20;;;;;;5054396;28;20733;-72
2022/03/02 02:12:04;;;;;;;4.23;3.93;;;-0.30;98.60;;;;;;5054661;28;20211;-70
2022/03/02 02:14:30;;;;;;;4.90;3.00;;;-0.40;98.80;;;;;;5036057;28;20192;-70
2022/03/02 02:16:55;;;;;;;5.13;3.03;;;-0.50;99.20;;;;;;5054402;28;20410;-71
2022/03/02 02:19:21;;;;;;;4.37;3.97;;;-0.50;99.20;;;;;;5036374;28;20607;-69
2022/03/02 02:21:48;;;;;;;2.63;2.43;;;-0.50;99.50;;;;;;5054181;28;20512;-69
2022/03/02 02:24:15;;;;;;;5.50;4.78;;;-0.50;99.50;;;;;;5053847;28;20205;-70
2022/03/02 02:26:41;;;;;;;4.30;3.90;;;-0.60;99.30;;;;;;5054173;28;20169;-70
2022/03/02 02:29:07;;;;;;;2.37;2.20;;;-0.60;99.30;;;;;;5054169;28;20531;-69
2022/03/02 02:31:33;;;;;;;2.60;2.50;;;-0.60;99.40;;;;;;5054250;28;20482;-70
2022/03/02 02:33:58;;;;;;;2.90;2.40;;;-0.60;99.70;;;;;;5053716;28;20400;-69
2022/03/02 02:36:25;;;;;;;5.07;2.60;;;-0.70;99.70;;;;;;5053917;28;20918;-70
2022/03/02 02:38:51;;;;;;;10.07;5.70;;;-0.70;99.90;;;;;;5035991;28;20643;-72
2022/03/02 02:41:18;;;;;;;4.00;3.53;;;-0.80;99.90;;;;;;5054056;28;20163;-71
2022/03/02 02:43:44;;;;;;;2.35;2.15;;;-0.80;99.90;;;;;;5035700;28;20765;-70
2022/03/02 02:46:10;;;;;;;4.73;4.40;;;-0.90;99.90;;;;;;5053841;28;20185;-70
2022/03/02 02:48:37;;;;;;;5.30;3.08;;;-0.90;99.90;;;;;;5053841;28;20523;-69
2022/03/02 02:51:04;;;;;;;3.22;2.97;;;-1.00;99.90;;;;;;5054055;28;20175;-70
2022/03/02 02:53:30;;;;;;;4.78;3.67;;;-1.00;99.90;;;;;;5035397;28;20272;-70
2022/03/02 02:55:55;;;;;;;5.37;3.47;;;-1.00;99.90;;;;;;5053648;28;20324;-71
2022/03/02 02:58:21;;;;;;;4.00;3.67;;;-1.00;99.90;;;;;;5053611;28;20181;-69
2022/03/02 03:00:49;;;;;;;2.90;2.80;;;-1.10;99.90;;;;;;5053533;28;20192;-71
2022/03/02 03:03:16;;;;;;;2.45;1.90;;;-1.10;99.90;;;;;;5035316;28;20539;-70
2022/03/02 03:05:42;;;;;;;4.13;3.75;;;-1.20;99.90;;;;;;5053250;28;20247;-70
2022/03/02 03:08:12;;;;;;;6.40;3.15;;;-1.30;99.90;;;;;;5053424;28;20189;-71
2022/03/02 03:10:40;;;;;;;2.70;2.50;;;-1.30;99.90;;;;;;5035496;28;20563;-70
2022/03/02 03:13:06;;;;;;;2.95;2.40;;;-1.30;99.90;;;;;;5053181;28;20170;-71
2022/03/02 03:15:33;;;;;;;3.08;2.85;;;-1.30;99.90;;;;;;5053215;28;20193;-70
2022/03/02 03:17:59;;;;;;;2.35;2.00;;;-1.40;99.90;;;;;;5053481;28;20165;-69
2022/03/02 03:20:26;;;;;;;7.50;3.43;;;-1.50;99.90;;;;;;5053365;28;20223;-69
2022/03/02 03:22:54;;;;;;;3.05;2.85;;;-1.40;99.90;;;;;;5053346;28;20171;-69
2022/03/02 03:25:20;;;;;;;4.05;3.05;;;-1.40;99.90;;;;;;5053960;28;20540;-68
2022/03/02 03:27:46;;;;;;;3.53;3.22;;;-1.50;99.90;;;;;;5060038;28;20166;-68
2022/03/02 03:30:14;;;;;;;3.58;3.03;;;-1.50;99.90;;;;;;5059647;28;20180;-68
2022/03/02 03:32:41;;;;;;;4.03;3.15;;;-1.50;99.90;;;;;;5059755;28;20165;-68
2022/03/02 03:35:08;;;;;;;8.27;5.35;;;-1.50;99.90;;;;;;5041530;28;20559;-69
2022/03/02 03:37:34;;;;;;;3.33;3.13;;;-1.50;99.90;;;;;;5059808;28;20168;-69
2022/03/02 03:40:00;;;;;;;2.90;2.70;;;-1.50;99.90;;;;;;5059731;28;20189;-69
2022/03/02 03:42:26;;;;;;;8.70;4.33;;;-1.50;99.90;;;;;;5060014;28;20404;-69
2022/03/02 03:44:51;;;;;;;4.30;3.27;;;-1.50;99.90;;;;;;5059326;28;20189;-70
2022/03/02 03:47:18;;;;;;;5.70;4.50;;;-1.50;99.90;;;;;;5059633;28;20482;-69
2022/03/02 03:49:43;;;;;;;2.85;2.65;;;-1.50;99.90;;;;;;5059684;28;20274;-69
2022/03/02 03:52:09;;;;;;;3.53;3.33;;;-1.50;99.90;;;;;;5059653;28;20261;-68
2022/03/02 03:54:36;;;;;;;7.30;4.47;;;-1.50;99.90;;;;;;5059292;28;20181;-69
2022/03/02 03:57:02;;;;;;;5.07;3.75;;;-1.50;99.90;;;;;;5059762;28;20655;-70
2022/03/02 03:59:27;;;;;;;3.22;3.03;;;-1.50;99.90;;;;;;5059657;28;20326;-68
2022/03/02 04:01:53;;;;;;;5.10;3.50;;;-1.50;99.90;;;;;;5059894;28;20248;-69
2022/03/02 04:04:19;;;;;;;3.90;2.30;;;-1.50;99.90;;;;;;5059225;28;20205;-68
2022/03/02 04:06:45;;;;;;;6.13;3.97;;;-1.50;99.90;;;;;;5041588;28;20234;-68
2022/03/02 04:09:11;;;;;;;4.65;4.30;;;-1.50;99.90;;;;;;5059277;28;20181;-68
2022/03/02 04:11:38;;;;;;;2.45;2.35;;;-1.60;99.90;;;;;;5059170;28;20222;-68
2022/03/02 04:14:04;;;;;;;1.80;1.80;;;-1.60;99.90;;;;;;5059010;28;20165;-68
2022/03/02 04:16:29;;;;;;;4.87;3.10;;;-1.60;99.90;;;;;;5059281;28;20219;-68
2022/03/02 04:18:55;;;;;;;4.87;4.37;;;-1.70;99.90;;;;;;5059476;28;20162;-68
2022/03/02 04:21:21;;;;;;;4.30;4.00;;;-1.60;99.90;;;;;;5059472;28;20248;-68
2022/03/02 04:23:46;;;;;;;2.40;1.77;;;-1.60;99.90;;;;;;5059087;28;20662;-68
2022/03/02 04:26:12;;;;;;;2.87;2.67;;;-1.60;99.90;;;;;;5059320;28;20193;-68
2022/03/02 04:28:38;;;;;;;4.20;2.87;;;-1.60;99.90;;;;;;5059262;28;20162;-68
2022/03/02 04:31:04;;;;;;;4.90;3.77;;;-1.60;99.90;;;;;;5041276;28;20512;-67
2022/03/02 04:33:30;;;;;;;3.03;2.83;;;-1.70;99.90;;;;;;5058881;28;20906;-68
2022/03/02 04:35:56;;;;;;;10.93;3.15;;;-1.70;99.90;;;;;;5059219;28;20262;-69
2022/03/02 04:38:22;;;;;;;4.15;3.03;;;-1.70;99.90;;;;;;5037458;28;20546;-69
2022/03/02 04:40:48;;;;;;;3.67;3.17;;;-1.70;99.90;;;;;;5056102;28;20196;-69
2022/03/02 04:43:14;;;;;;;4.32;3.38;;;-1.60;99.90;;;;;;5055767;28;20165;-69
2022/03/02 04:45:39;;;;;;;4.47;4.07;;;-1.60;99.90;;;;;;5055808;28;20195;-68
2022/03/02 04:48:08;;;;;;;2.77;2.03;;;-1.70;99.90;;;;;;5055829;28;20168;-68
2022/03/02 04:50:33;;;;;;;3.20;2.65;;;-1.70;99.90;;;;;;5055865;28;20430;-69
2022/03/02 04:52:59;;;;;;;3.10;2.90;;;-1.80;99.90;;;;;;5055906;28;20255;-69
2022/03/02 04:55:25;;;;;;;2.87;2.67;;;-1.80;99.90;;;;;;5037502;28;20204;-70
2022/03/02 04:57:56;;;;;;;2.07;1.97;;;-1.80;99.90;;;;;;5038110;28;20435;-69
2022/03/02 05:00:28;;;;;;;3.00;2.70;;;-1.80;99.90;;;;;;5055645;28;20287;-69
2022/03/02 05:02:54;;;;;;;3.83;3.05;;;-1.80;99.90;;;;;;5055543;28;20248;-69
2022/03/02 05:05:21;;;;;;;2.40;2.30;;;-1.80;99.90;;;;;;5055253;28;20275;-70
2022/03/02 05:07:48;;;;;;;2.28;1.83;;;-1.80;99.90;;;;;;5055626;28;20169;-68
2022/03/02 05:10:16;;;;;;;3.50;2.15;;;-1.70;99.90;;;;;;5055426;28;20232;-68
2022/03/02 05:12:42;;;;;;;3.65;3.42;;;-1.80;99.90;;;;;;5055617;28;20184;-69
2022/03/02 05:15:10;;;;;;;3.00;2.20;;;-1.80;99.90;;;;;;5055210;28;20197;-69
2022/03/02 05:17:37;;;;;;;4.05;3.65;;;-1.80;99.90;;;;;;5055696;28;20193;-69
2022/03/02 05:20:04;;;;;;;7.72;3.15;;;-1.80;99.90;;;;;;5037224;28;20670;-69
2022/03/02 05:22:30;;;;;;;3.58;3.20;;;-1.80;99.90;;;;;;5055388;28;20174;-69
2022/03/02 05:24:56;;;;;;;3.63;2.43;;;-1.80;99.90;;;;;;5054905;28;20277;-68
2022/03/02 05:27:22;;;;;;;2.37;2.30;;;-1.80;99.90;;;;;;5055196;28;20202;-69
2022/03/02 05:29:47;;;;;;;3.20;2.90;;;-1.80;99.90;;;;;;5055188;28;20219;-69
2022/03/02 05:32:13;;;;;;;4.13;3.53;;;-1.90;99.90;;;;;;5055230;28;20193;-70
2022/03/02 05:34:39;;;;;;;2.20;2.10;;;-1.80;99.90;;;;;;5036760;28;20196;-69
2022/03/02 05:37:05;;;;;;;4.43;3.27;;;-1.90;99.90;;;;;;5055110;28;20170;-69
2022/03/02 05:39:31;;;;;;;4.00;3.40;;;-1.90;99.90;;;;;;5054804;28;20331;-69
2022/03/02 05:41:56;;;;;;;2.22;2.13;;;-1.90;99.90;;;;;;5055077;28;20165;-69
2022/03/02 05:44:22;;;;;;;5.27;4.80;;;-1.90;99.90;;;;;;5054738;28;20566;-68
2022/03/02 05:46:48;;;;;;;2.40;1.97;;;-1.90;99.90;;;;;;5037091;28;20643;-68
2022/03/02 05:49:14;;;;;;;6.30;4.07;;;-1.90;99.90;;;;;;5054538;28;20200;-69
2022/03/02 05:51:41;;;;;;;5.00;4.70;;;-1.90;99.90;;;;;;5054920;28;20174;-69
2022/03/02 05:54:08;;;;;;;7.57;4.00;;;-1.90;99.90;;;;;;5054496;28;20166;-69
2022/03/02 05:56:39;;;;;;;8.25;5.63;;;-2.00;99.90;;;;;;5036646;28;20176;-69
2022/03/02 05:59:05;;;;;;;2.35;2.17;;;-1.90;99.90;;;;;;5054824;28;20162;-69
2022/03/02 06:01:31;;;;;;;2.67;2.25;;;-1.90;99.90;;;;;;5054710;28;20543;-69
2022/03/02 06:03:58;;;;;;;2.83;2.63;;;-1.90;99.90;;;;;;5036243;28;20247;-69
2022/03/02 06:06:23;;;;;;;3.88;3.65;;;-1.80;99.90;;;;;;5054653;28;20172;-69
2022/03/02 06:08:50;;;;;;;8.33;4.47;;;-1.80;99.90;;;;;;5036569;28;20165;-68
2022/03/02 06:11:15;;;;;;;2.63;2.42;;;-1.80;99.90;;;;;;5054410;28;20166;-68
2022/03/02 06:13:41;;;;;;;4.80;4.10;;;-1.80;99.90;;;;;;5036080;28;20609;-68
2022/03/02 06:16:08;;;;;;;3.30;3.10;;;-1.70;99.90;;;;;;5054362;28;20603;-68
2022/03/02 06:18:34;;;;;;;3.35;2.75;;;-1.60;99.90;;;;;;5054431;28;20503;-68
2022/03/02 06:21:01;;;;;;;3.13;2.92;;;-1.60;99.90;;;;;;5036438;28;20300;-68
2022/03/02 06:23:28;;;;;;;7.53;4.30;;;-1.60;99.90;;;;;;5054100;28;20234;-68
2022/03/02 06:25:54;;;;;;;3.05;2.75;;;-1.50;99.90;;;;;;5054118;28;20268;-69
2022/03/02 06:28:20;;;;;;;2.22;2.13;;;-1.40;99.90;;;;;;5055611;28;20607;-69
2022/03/02 06:30:45;;;;;;;4.20;3.80;;;-1.30;99.90;;;;;;5054145;28;20176;-68
2022/03/02 06:33:15;;;;;;;2.93;2.83;;;-1.10;99.90;;;;;;5053725;28;20546;-70
2022/03/02 06:35:41;;;;;;;3.58;3.28;;;-1.00;99.90;;;;;;5053873;28;20204;-69
2022/03/02 06:38:07;;;;;;;5.90;3.30;;;-0.90;99.90;;;;;;5053710;28;20205;-69
2022/03/02 06:40:33;;;;;;;4.63;4.13;;;-0.90;99.90;;;;;;5053891;28;20224;-69
2022/03/02 06:43:08;;;;;;;2.50;2.40;;;-0.80;99.90;;;;;;5053877;28;20223;-69
2022/03/02 06:46:11;;;;;;;2.72;2.55;;;-0.60;99.90;;;;;;5053726;28;20485;-68
2022/03/02 06:48:53;;;;;;;2.05;2.03;;;-0.40;99.90;;;;;;4953917;29;20532;-69
2022/03/02 06:51:24;;;;;;;6.80;3.88;;;-0.30;99.90;;;;;;5045695;28;20543;-68
2022/03/02 06:53:51;;;;;;;3.05;2.58;;;-0.10;99.90;;;;;;5036228;28;20653;-67
2022/03/02 06:56:19;;;;;;;6.25;3.42;;;0.10;99.90;;;;;;5036414;28;20169;-67
2022/03/02 06:58:53;;;;;;;4.53;3.75;;;0.30;99.90;;;;;;5036921;28;20177;-67
2022/03/02 07:01:31;;;;;;;5.53;3.60;;;0.40;99.90;;;;;;5052985;28;20241;-67
2022/03/02 07:03:58;;;;;;;4.80;3.70;;;0.60;99.90;;;;;;5053647;28;20512;-68
2022/03/02 07:06:26;;;;;;;3.13;2.88;;;0.80;99.90;;;;;;5056050;28;20166;-67
2022/03/02 07:08:52;;;;;;;4.10;3.67;;;1.00;99.90;;;;;;5056678;28;20512;-67
2022/03/02 07:11:19;;;;;;;3.60;3.35;;;1.20;99.90;;;;;;5057740;28;20169;-67
2022/03/02 07:13:46;;;;;;;7.78;2.10;;;1.30;99.90;;;;;;5056934;28;20587;-69
2022/03/02 07:16:16;;;;;;;2.03;1.92;;;1.40;99.10;;;;;;5057357;28;20686;-68
2022/03/02 07:18:42;;;;;;;6.47;4.38;;;1.40;98.90;;;;;;5039868;28;20227;-69
2022/03/02 07:21:11;;;;;;;4.20;3.63;;;1.30;98.70;;;;;;5057108;28;20197;-68
2022/03/02 07:23:42;;;;;;;2.20;2.10;;;1.30;98.90;;;;;;5057316;28;20553;-68
2022/03/02 07:26:08;;;;;;;8.00;4.25;;;1.30;99.30;;;;;;5055850;28;20181;-69
2022/03/02 07:28:38;;;;;;;3.90;3.60;;;1.40;98.80;;;;;;5055784;28;20628;-67
2022/03/02 07:31:08;;;;;;;3.40;3.10;;;1.50;98.70;;;;;;5036665;28;20204;-68
2022/03/02 07:33:37;;;;;;;4.13;3.83;;;1.50;98.70;;;;;;5053659;28;20227;-68
2022/03/02 07:36:03;;;;;;;3.75;2.67;;;1.60;98.70;;;;;;5053063;28;20185;-67
2022/03/02 07:38:31;;;;;;;4.13;3.75;;;1.70;99.00;;;;;;5053479;28;20564;-67
2022/03/02 07:40:58;;;;;;;4.95;4.55;;;1.70;98.60;;;;;;5053052;28;20625;-67
2022/03/02 07:43:23;;;;;;;5.07;4.45;;;1.70;99.20;;;;;;5052681;28;20634;-67
2022/03/02 07:45:50;;;;;;;5.37;4.90;;;1.80;99.90;;;;;;5053152;28;20268;-67
2022/03/02 07:48:16;;;;;;;6.38;5.00;;;1.90;99.90;;;;;;5053285;28;20176;-67
2022/03/02 07:50:42;;;;;;;6.10;5.55;;;2.00;99.70;;;;;;5053098;28;20169;-68
2022/03/02 07:53:13;;;;;;;3.55;3.25;;;2.00;99.00;;;;;;5052896;28;20296;-68
2022/03/02 07:55:39;;;;;;;4.50;3.40;;;2.00;98.80;;;;;;5053271;28;20203;-68
2022/03/02 07:58:05;;;;;;;9.82;5.22;;;2.20;98.90;;;;;;5053215;28;20173;-68
2022/03/02 08:00:30;;;;;;;5.33;3.63;;;2.30;98.40;;;;;;5035055;28;20201;-68
2022/03/02 08:02:58;;;;;;;5.00;4.17;;;2.30;98.10;;;;;;5052903;28;20527;-69
2022/03/02 08:05:24;;;;;;;8.65;6.15;;;2.40;98.10;;;;;;5052304;28;20440;-68
2022/03/02 08:07:50;;;;;;;4.95;4.45;;;2.50;97.80;;;;;;5053178;28;20162;-68
2022/03/02 08:10:17;;;;;;;5.57;5.07;;;2.60;97.20;;;;;;5052858;28;20704;-68
2022/03/02 08:12:44;;;;;;;8.13;4.60;;;2.70;97.10;;;;;;5054886;28;20400;-69
2022/03/02 08:15:10;;;;;;;8.45;5.50;;;2.80;96.70;;;;;;5056313;28;20189;-69
2022/03/02 08:17:36;;;;;;;11.88;4.43;;;2.90;96.80;;;;;;5056419;28;20508;-69
2022/03/02 08:20:04;;;;;;;5.60;4.18;;;3.10;96.80;;;;;;5056357;28;20204;-69
2022/03/02 08:22:31;;;;;;;8.98;5.30;;;3.30;96.50;;;;;;5056498;28;20166;-68
2022/03/02 08:25:02;;;;;;;7.35;5.05;;;3.50;96.20;;;;;;5055970;28;20235;-68
2022/03/02 08:27:30;;;;;;;4.13;3.70;;;3.60;96.20;;;;;;5056431;28;20524;-68
2022/03/02 08:29:56;;;;;;;4.95;4.65;;;3.80;95.90;;;;;;5056384;28;20169;-69
2022/03/02 08:32:24;;;;;;;5.80;4.70;;;4.00;95.50;;;;;;5056330;28;20241;-67
2022/03/02 08:34:50;;;;;;;4.82;3.72;;;4.10;95.20;;;;;;5055875;28;20213;-68
2022/03/02 08:37:19;;;;;;;6.93;4.50;;;4.30;95.10;;;;;;5056374;28;20209;-69
2022/03/02 08:39:46;;;;;;;7.57;6.82;;;4.50;94.90;;;;;;5056079;28;20204;-67
2022/03/02 08:42:12;;;;;;;5.00;4.32;;;4.70;94.20;;;;;;5056079;28;20206;-69
2022/03/02 08:44:39;;;;;;;7.05;4.90;;;4.90;93.80;;;;;;5055588;28;20195;-68
2022/03/02 08:47:06;;;;;;;6.65;4.22;;;5.20;93.60;;;;;;5055918;28;20161;-68
2022/03/02 08:49:32;;;;;;;7.30;5.30;;;5.40;92.50;;;;;;5056055;28;20176;-68
2022/03/02 08:51:58;;;;;;;5.73;5.23;;;5.60;91.80;;;;;;5055965;28;20226;-68
2022/03/02 08:54:27;;;;;;;7.30;5.07;;;5.50;90.60;;;;;;5055510;28;20440;-69
2022/03/02 08:56:54;;;;;;;9.20;5.60;;;5.60;90.40;;;;;;5055907;28;20171;-68
2022/03/02 08:59:20;;;;;;;6.32;4.30;;;5.80;90.60;;;;;;5055538;28;20165;-67
2022/03/02 09:01:53;;;;;;;4.32;3.78;;;6.00;90.20;;;;;;5056117;28;20176;-68
2022/03/02 09:04:22;;;;;;;6.57;4.38;;;6.30;89.60;;;;;;5055525;28;20205;-67
2022/03/02 09:06:48;;;;;;;4.35;3.90;;;6.80;87.40;;;;;;5055558;28;20535;-67
2022/03/02 09:09:16;;;;;;;6.03;5.40;;;7.20;85.30;;;;;;5055768;28;20165;-69
2022/03/02 09:11:43;;;;;;;5.13;4.57;;;7.60;82.10;;;;;;5037793;28;20165;-67
2022/03/02 09:14:09;;;;;;;5.50;4.72;;;7.90;82.00;;;;;;5055076;28;20197;-70
2022/03/02 09:16:35;;;;;;;5.50;4.00;;;8.30;80.50;;;;;;5055476;28;20510;-70
2022/03/02 09:19:00;;;;;;;5.10;4.60;;;8.60;78.40;;;;;;5055448;28;20425;-68
2022/03/02 09:21:27;;;;;;;6.33;5.47;;;9.00;77.40;;;;;;5055350;28;20202;-68
2022/03/02 09:23:55;;;;;;;6.73;4.80;;;9.50;75.60;;;;;;5054265;28;20418;-68
2022/03/02 09:26:21;;;;;;;5.37;4.83;;;10.00;72.70;;;;;;5037348;28;20513;-68
2022/03/02 09:28:51;;;;;;;5.70;5.20;;;10.30;71.20;;;;;;5055169;28;20438;-68
2022/03/02 09:31:19;;;;;;;6.10;5.43;;;10.50;70.30;;;;;;5037213;28;20910;-68
2022/03/02 09:33:53;;;;;;;6.60;5.87;;;10.90;68.30;;;;;;5036850;28;20424;-68
2022/03/02 09:36:22;;;;;;;5.23;4.73;;;11.30;65.10;;;;;;5055235;28;20391;-71
2022/03/02 09:38:49;;;;;;;8.60;5.43;;;11.40;64.30;;;;;;5055281;28;20466;-69
2022/03/02 09:41:23;;;;;;;6.77;5.10;;;11.70;65.20;;;;;;5055244;28;20804;-68
2022/03/02 09:43:53;;;;;;;6.40;5.43;;;12.10;62.10;;;;;;5054524;28;20496;-69
2022/03/02 09:46:31;;;;;;;6.77;5.43;;;12.40;60.80;;;;;;5054918;28;20414;-69
2022/03/02 09:49:04;;;;;;;7.27;5.77;;;12.70;59.60;;;;;;5055073;28;20510;-69
2022/03/02 09:51:32;;;;;;;8.50;6.30;;;12.60;58.30;;;;;;5054754;28;20437;-68
2022/03/02 09:54:01;;;;;;;7.30;6.00;;;12.30;58.30;;;;;;5054316;28;20417;-67
2022/03/02 09:56:29;;;;;;;6.20;5.00;;;12.10;57.60;;;;;;5054637;28;20404;-69
2022/03/02 09:58:55;;;;;;;7.87;5.93;;;11.60;58.20;;;;;;5054718;28;20475;-68
2022/03/02 10:01:23;;;;;;;6.30;5.70;;;11.20;58.70;;;;;;5036743;28;20534;-68
2022/03/02 10:03:51;;;;;;;7.90;6.03;;;11.20;59.20;;;;;;5054311;28;20222;-69
2022/03/02 10:06:18;;;;;;;12.40;7.20;;;11.10;59.00;;;;;;5054876;28;20750;-68
2022/03/02 10:08:49;;;;;;;7.63;5.23;;;11.00;59.30;;;;;;5054381;28;20403;-69
2022/03/02 10:11:18;;;;;;;5.77;5.17;;;10.90;60.30;;;;;;5054448;28;20490;-68
2022/03/02 10:13:44;;;;;;;7.40;6.03;;;10.70;59.50;;;;;;5054228;28;20404;-68
2022/03/02 10:16:22;;;;;;;7.20;6.33;;;10.60;60.90;;;;;;5054382;28;20986;-69
2022/03/02 10:18:59;;;;;;;6.17;5.57;;;10.60;61.50;;;;;;5054477;28;20407;-69
2022/03/02 10:21:39;;;;;;;11.13;6.20;;;10.80;61.80;;;;;;5054228;28;20505;-70
2022/03/02 10:24:04;;;;;;;6.93;5.20;;;11.20;61.80;;;;;;5036167;28;20444;-69
2022/03/02 10:26:34;;;;;;;8.90;5.40;;;11.50;59.50;;;;;;5054028;28;20444;-69
2022/03/02 10:29:03;;;;;;;6.77;5.07;;;11.90;59.60;;;;;;5054136;28;20250;-69
2022/03/02 10:31:41;;;;;;;7.17;6.13;;;12.30;58.80;;;;;;5036006;28;20829;-68
2022/03/02 10:34:25;;;;;;;7.40;6.13;;;12.70;58.30;;;;;;5053544;28;20411;-69
2022/03/02 10:37:09;;;;;;;6.50;5.70;;;13.00;57.10;;;;;;5035274;28;20964;-70
2022/03/02 10:39:58;;;;;;;6.13;5.40;;;13.20;56.90;;;;;;5053692;28;20447;-68
2022/03/02 10:42:30;;;;;;;7.20;6.40;;;13.20;56.60;;;;;;5053806;28;20891;-69
2022/03/02 10:45:16;;;;;;;6.93;6.30;;;13.00;56.80;;;;;;5053391;28;20423;-68
2022/03/02 10:48:00;;;;;;;5.80;5.30;;;13.00;57.50;;;;;;5053948;28;20394;-69
2022/03/02 10:50:34;;;;;;;7.27;5.23;;;13.10;57.40;;;;;;5053665;28;20405;-69
2022/03/02 10:53:03;;;;;;;6.57;5.40;;;12.80;56.50;;;;;;5053671;28;20432;-68
2022/03/02 10:55:32;;;;;;;6.30;5.70;;;12.40;56.90;;;;;;5053691;28;20429;-68
2022/03/02 10:58:01;;;;;;;9.80;6.33;;;12.10;57.70;;;;;;5053537;28;20400;-68
2022/03/02 11:00:27;;;;;;;7.00;6.40;;;12.00;58.00;;;;;;5053222;28;20810;-68
2022/03/02 11:02:59;;;;;;;6.50;5.80;;;11.70;59.20;;;;;;5035463;28;20408;-69
2022/03/02 11:05:28;;;;;;;9.00;6.10;;;11.10;58.90;;;;;;5053163;28;20199;-68
2022/03/02 11:07:54;;;;;;;9.50;7.47;;;10.60;58.70;;;;;;5053415;28;20807;-68
2022/03/02 11:10:23;;;;;;;7.80;6.20;;;10.40;59.40;;;;;;5053516;28;20751;-68
2022/03/02 11:12:50;;;;;;;8.10;6.33;;;10.20;61.10;;;;;;5053282;28;20488;-70
2022/03/02 11:15:18;;;;;;;15.90;6.90;;;10.20;61.40;;;;;;5053065;28;20425;-70
2022/03/02 11:17:58;;;;;;;9.20;6.43;;;10.00;61.30;;;;;;5053409;28;20431;-69
2022/03/02 11:20:26;;;;;;;10.30;7.10;;;9.90;62.60;;;;;;5053355;28;20439;-69
2022/03/02 11:23:00;;;;;;;11.07;6.37;;;9.80;63.00;;;;;;5053300;28;20401;-69
2022/03/02 11:25:48;;;;;;;7.25;5.72;;;9.70;63.00;;;;;;5053034;28;20418;-69
2022/03/02 11:28:20;;;;;;;7.55;6.10;;;9.60;63.30;;;;;;5053451;28;20165;-69
2022/03/02 11:31:01;;;;;;;9.07;6.93;;;9.30;63.40;;;;;;5053381;28;20177;-69
2022/03/02 11:33:29;;;;;;;6.25;4.88;;;9.20;64.00;;;;;;5053050;28;20181;-70
2022/03/02 11:36:07;;;;;;;7.82;6.30;;;9.30;64.80;;;;;;5053048;28;20189;-70
2022/03/02 11:38:33;;;;;;;7.00;6.20;;;9.30;63.90;;;;;;5053259;28;20192;-72
2022/03/02 11:41:00;;;;;;;9.10;6.33;;;9.50;64.80;;;;;;5035355;28;20455;-69
2022/03/02 11:43:32;;;;;;;8.73;7.40;;;9.60;64.90;;;;;;5052871;28;20219;-70
2022/03/02 11:46:06;;;;;;;7.97;5.55;;;9.60;64.00;;;;;;5053244;28;20196;-69
2022/03/02 11:48:39;;;;;;;8.15;5.75;;;9.60;63.70;;;;;;5057106;28;20181;-70
2022/03/02 11:51:23;;;;;;;7.40;5.60;;;9.80;63.70;;;;;;5057343;28;20223;-71
2022/03/02 11:53:58;;;;;;;7.13;4.90;;;10.00;63.80;;;;;;5056729;28;20185;-70
2022/03/02 11:56:26;;;;;;;6.57;5.10;;;9.90;63.20;;;;;;5057113;28;20535;-69
2022/03/02 11:59:00;;;;;;;9.30;6.20;;;9.90;61.50;;;;;;5056859;28;20177;-70
2022/03/02 12:01:27;;;;;;;6.95;4.53;;;10.00;60.90;;;;;;5056808;28;20488;-68
2022/03/02 12:04:14;;;;;;;8.57;6.78;;;10.00;59.90;;;;;;5056235;28;20189;-68
2022/03/02 12:06:48;;;;;;;9.35;5.55;;;10.20;60.10;;;;;;5056821;28;20165;-70
2022/03/02 12:09:33;;;;;;;7.87;5.30;;;10.20;60.30;;;;;;5056604;28;20670;-67
2022/03/02 12:12:22;;;;;;;6.15;5.60;;;10.20;61.10;;;;;;5056832;28;20900;-69
2022/03/02 12:14:56;;;;;;;7.00;4.90;;;10.30;61.10;;;;;;5056105;28;20186;-69
2022/03/02 12:17:33;;;;;;;6.50;5.40;;;10.30;60.30;;;;;;5056357;28;20742;-69
2022/03/02 12:20:22;;;;;;;5.82;5.20;;;10.30;61.50;;;;;;5056223;28;20450;-70
2022/03/02 12:22:51;;;;;;;6.70;5.73;;;10.50;61.20;;;;;;5055765;28;20205;-70
2022/03/02 12:25:21;;;;;;;6.70;6.00;;;10.60;61.30;;;;;;5056055;28;20429;-70
2022/03/02 12:28:01;;;;;;;8.00;6.80;;;10.60;60.40;;;;;;5056110;28;20402;-69
2022/03/02 12:30:32;;;;;;;8.20;5.90;;;10.80;60.50;;;;;;5056073;28;20925;-71
2022/03/02 12:32:58;;;;;;;6.07;5.37;;;10.70;60.10;;;;;;5056067;28;20830;-72
2022/03/02 12:35:24;;;;;;;9.23;5.73;;;10.70;60.40;;;;;;5055630;28;20428;-70
2022/03/02 12:37:56;;;;;;;6.07;5.47;;;10.60;61.00;;;;;;5056095;28;20428;-70
2022/03/02 12:40:26;;;;;;;7.27;5.77;;;10.50;60.90;;;;;;5056044;28;20452;-69
2022/03/02 12:42:52;;;;;;;6.38;5.60;;;10.50;62.10;;;;;;5055768;28;20748;-69
2022/03/02 12:45:20;;;;;;;7.70;5.53;;;10.40;61.30;;;;;;5055602;28;20256;-69
2022/03/02 12:47:46;;;;;;;6.75;5.55;;;10.30;61.80;;;;;;5055970;28;20562;-69
2022/03/02 12:50:14;;;;;;;9.23;5.60;;;10.20;62.10;;;;;;5055830;28;20218;-69
2022/03/02 12:52:40;;;;;;;8.50;5.78;;;10.00;62.30;;;;;;5055785;28;20299;-69
2022/03/02 12:55:10;;;;;;;5.45;4.95;;;9.80;63.40;;;;;;5055240;28;20196;-71